createdAt,value
2019-04-27T00:00:22.966Z,87.80
2019-04-27T00:03:02.020Z,88.70
2019-04-27T00:05:46.600Z,87.50
2019-04-27T00:08:32.513Z,89.80
2019-04-27T00:11:13.646Z,89.00
2019-04-27T00:13:48.864Z,89.30
2019-04-27T00:16:35.874Z,88.50
2019-04-27T00:19:23.204Z,88.20
2019-04-27T00:22:04.695Z,88.10
2019-04-27T00:24:39.825Z,89.30
2019-04-27T00:27:15.456Z,88.10
2019-04-27T00:29:50.330Z,88.50
2019-04-27T00:32:25.463Z,89.10
2019-04-27T00:35:00.511Z,87.40
2019-04-27T00:40:34.554Z,88.50
2019-04-27T00:43:09.989Z,86.40
2019-04-27T00:45:45.143Z,86.10
2019-04-27T00:48:20.257Z,85.20
2019-04-27T00:50:55.297Z,85.80
2019-04-27T00:53:33.407Z,85.90
2019-04-27T00:56:13.964Z,86.70
2019-04-27T00:58:53.901Z,87.20
2019-04-27T01:01:45.620Z,87.60
2019-04-27T01:04:23.625Z,86.10
2019-04-27T01:06:59.485Z,88.80
2019-04-27T01:09:36.490Z,88.60
2019-04-27T01:12:13.606Z,89.10
2019-04-27T01:14:49.411Z,86.40
2019-04-27T01:17:24.809Z,87.30
2019-04-27T01:20:00.112Z,87.80
2019-04-27T01:22:35.845Z,86.70
2019-04-27T01:25:11.330Z,87.20
2019-04-27T01:28:03.943Z,87.20
2019-04-27T01:30:54.550Z,87.50
2019-04-27T01:33:30.304Z,87.50
2019-04-27T01:36:05.686Z,86.80
2019-04-27T01:38:41.006Z,88.30
2019-04-27T01:41:16.064Z,87.10
2019-04-27T01:43:51.471Z,87.60
2019-04-27T01:46:26.758Z,84.80
2019-04-27T01:49:01.752Z,84.90
2019-04-27T01:51:37.091Z,84.40
2019-04-27T01:54:12.884Z,84.80
2019-04-27T01:56:49.258Z,85.60
2019-04-27T01:59:24.156Z,84.70
2019-04-27T02:02:10.604Z,83.50
2019-04-27T02:04:49.669Z,85.30
2019-04-27T02:07:25.730Z,85.90
2019-04-27T02:10:03.325Z,85.80
2019-04-27T02:12:39.724Z,85.60
2019-04-27T02:15:34.232Z,84.10
2019-04-27T02:18:09.668Z,85.80
2019-04-27T02:20:45.525Z,83.70
2019-04-27T02:23:20.728Z,86.50
2019-04-27T02:25:55.785Z,85.60
2019-04-27T02:28:36.017Z,83.40
2019-04-27T02:31:12.283Z,82.20
2019-04-27T02:33:50.039Z,82.00
2019-04-27T02:36:24.760Z,84.00
2019-04-27T02:38:59.901Z,84.40
2019-04-27T02:41:35.798Z,81.00
2019-04-27T02:44:14.850Z,81.60
2019-04-27T02:46:50.355Z,81.00
2019-04-27T02:49:25.759Z,81.70
2019-04-27T02:52:02.009Z,80.40
2019-04-27T02:54:39.789Z,81.00
2019-04-27T02:57:13.850Z,80.60
2019-04-27T02:59:50.313Z,81.80
2019-04-27T03:02:33.403Z,81.50
2019-04-27T03:05:12.697Z,80.00
2019-04-27T03:07:45.837Z,80.20
2019-04-27T03:10:21.352Z,78.30
2019-04-27T03:13:00.133Z,79.90
2019-04-27T03:15:52.522Z,79.90
2019-04-27T03:18:40.090Z,80.90
2019-04-27T03:21:21.931Z,80.10
2019-04-27T03:23:56.841Z,80.70
2019-04-27T03:26:33.224Z,79.60
2019-04-27T03:29:09.783Z,77.70
2019-04-27T03:31:47.598Z,76.40
2019-04-27T03:34:22.227Z,76.40
2019-04-27T03:36:59.767Z,79.10
2019-04-27T03:39:34.215Z,79.80
2019-04-27T03:42:10.595Z,79.10
2019-04-27T03:44:46.003Z,79.20
2019-04-27T03:47:21.451Z,80.40
2019-04-27T03:49:56.266Z,80.10
2019-04-27T03:52:32.742Z,80.20
2019-04-27T03:55:10.322Z,77.70
2019-04-27T03:58:05.224Z,78.50
2019-04-27T04:00:40.394Z,77.10
2019-04-27T04:03:15.871Z,79.20
2019-04-27T04:05:51.939Z,78.60
2019-04-27T04:08:27.133Z,78.70
2019-04-27T04:11:03.160Z,80.00
2019-04-27T04:13:45.695Z,77.90
2019-04-27T04:16:21.511Z,76.90
2019-04-27T04:19:01.094Z,76.00
2019-04-27T04:21:36.746Z,77.30
2019-04-27T04:24:12.482Z,78.80
2019-04-27T04:26:49.986Z,79.10
2019-04-27T04:29:24.215Z,76.30
2019-04-27T04:32:00.485Z,78.00
2019-04-27T04:34:36.161Z,80.20
2019-04-27T04:37:11.065Z,80.20
2019-04-27T04:39:49.787Z,80.20
2019-04-27T04:42:32.748Z,77.90
2019-04-27T04:45:20.342Z,79.40
2019-04-27T04:47:59.734Z,79.60
2019-04-27T04:50:35.571Z,80.60
2019-04-27T04:53:12.233Z,80.90
2019-04-27T04:55:48.770Z,80.30
2019-04-27T04:58:22.991Z,80.70
2019-04-27T05:00:59.647Z,80.90
2019-04-27T05:03:54.769Z,80.60
2019-04-27T05:06:30.215Z,81.30
2019-04-27T05:09:05.514Z,83.10
2019-04-27T05:11:41.204Z,81.20
2019-04-27T05:14:16.297Z,81.30
2019-04-27T05:16:51.565Z,82.80
2019-04-27T05:19:28.724Z,81.70
2019-04-27T05:22:04.345Z,84.20
2019-04-27T05:24:39.452Z,82.00
2019-04-27T05:27:15.672Z,84.10
2019-04-27T05:29:51.373Z,82.20
2019-04-27T05:32:26.576Z,82.20
2019-04-27T05:35:01.569Z,83.50
2019-04-27T05:37:38.884Z,83.40
2019-04-27T05:40:13.255Z,84.00
2019-04-27T05:42:55.099Z,84.70
2019-04-27T05:46:01.054Z,85.30
2019-04-27T05:48:36.394Z,85.90
2019-04-27T05:51:11.329Z,85.70
2019-04-27T05:53:46.805Z,86.00
2019-04-27T05:56:21.852Z,85.80
2019-04-27T05:59:00.154Z,86.50
2019-04-27T06:01:33.819Z,85.90
2019-04-27T06:04:29.079Z,86.70
2019-04-27T06:07:04.171Z,86.10
2019-04-27T06:09:39.316Z,87.40
2019-04-27T06:12:14.304Z,87.30
2019-04-27T06:14:49.600Z,86.30
2019-04-27T06:17:24.542Z,87.60
2019-04-27T06:19:59.854Z,86.40
2019-04-27T06:22:36.032Z,85.70
2019-04-27T06:25:12.590Z,87.20
2019-04-27T06:27:47.531Z,86.00
2019-04-27T06:30:22.896Z,86.00
2019-04-27T06:32:59.334Z,85.70
2019-04-27T06:35:35.362Z,88.20
2019-04-27T06:38:11.609Z,88.30
2019-04-27T06:40:48.947Z,88.20
2019-04-27T06:43:24.981Z,89.50
2019-04-27T06:46:01.524Z,89.90
2019-04-27T06:48:36.452Z,90.10
2019-04-27T06:51:11.645Z,90.50
2019-04-27T06:53:59.451Z,90.50
2019-04-27T06:56:35.595Z,91.50
2019-04-27T06:59:10.595Z,91.20
2019-04-27T07:02:05.866Z,91.30
2019-04-27T07:04:41.051Z,90.80
2019-04-27T07:07:16.512Z,90.80
2019-04-27T07:09:51.328Z,91.20
2019-04-27T07:12:28.690Z,91.50
2019-04-27T07:15:03.091Z,92.00
2019-04-27T07:17:38.919Z,92.20
2019-04-27T07:20:14.216Z,92.50
2019-04-27T07:22:50.249Z,92.60
2019-04-27T07:25:25.986Z,92.90
2019-04-27T07:28:01.217Z,93.10
2019-04-27T07:30:38.682Z,93.40
2019-04-27T07:33:13.513Z,93.50
2019-04-27T07:35:52.165Z,93.30
2019-04-27T07:38:29.384Z,93.50
2019-04-27T07:41:05.224Z,93.50
2019-04-27T07:43:50.998Z,94.00
2019-04-27T07:46:28.232Z,94.10
2019-04-27T07:49:02.960Z,94.10
2019-04-27T07:51:41.447Z,94.50
2019-04-27T07:54:18.946Z,94.70
2019-04-27T07:57:09.951Z,94.80
2019-04-27T07:59:46.010Z,94.80
2019-04-27T08:02:21.237Z,95.00
2019-04-27T08:05:00.412Z,95.00
2019-04-27T08:07:36.715Z,95.60
2019-04-27T08:10:14.950Z,95.40
2019-04-27T08:12:49.820Z,95.50
2019-04-27T08:15:25.251Z,95.60
2019-04-27T08:18:00.205Z,95.90
2019-04-27T08:20:40.537Z,95.90
2019-04-27T08:23:14.286Z,95.70
2019-04-27T08:25:52.603Z,95.90
2019-04-27T08:28:28.681Z,95.80
2019-04-27T08:31:14.314Z,96.00
2019-04-27T08:33:49.547Z,96.10
2019-04-27T08:36:25.036Z,96.10
2019-04-27T08:39:00.014Z,96.20
2019-04-27T08:41:36.412Z,96.20
2019-04-27T08:44:11.273Z,96.20
2019-04-27T08:46:46.625Z,96.20
2019-04-27T08:49:21.706Z,96.30
2019-04-27T08:51:59.946Z,96.40
2019-04-27T08:54:33.344Z,96.40
2019-04-27T08:57:11.828Z,96.60
2019-04-27T08:59:46.955Z,96.70
2019-04-27T09:02:22.109Z,96.70
2019-04-27T09:05:16.509Z,96.80
2019-04-27T09:07:56.960Z,96.90
2019-04-27T09:10:53.503Z,96.90
2019-04-27T09:13:36.154Z,97.00
2019-04-27T09:16:18.634Z,97.10
2019-04-27T09:22:13.580Z,97.20
2019-04-27T09:24:42.265Z,97.20
2019-04-27T09:27:19.690Z,97.40
2019-04-27T09:29:58.988Z,97.40
2019-04-27T09:32:41.027Z,97.60
2019-04-27T09:35:16.691Z,97.70
2019-04-27T09:37:51.945Z,97.70
2019-04-27T09:40:29.090Z,97.60
2019-04-27T09:45:53.031Z,97.80
2019-04-27T09:48:27.857Z,97.90
2019-04-27T09:51:03.121Z,98.00
2019-04-27T09:53:37.890Z,97.90
2019-04-27T09:56:32.905Z,98.00
2019-04-27T09:59:10.761Z,98.10
2019-04-27T10:01:46.340Z,98.40
2019-04-27T10:04:21.749Z,99.00
2019-04-27T10:07:02.736Z,99.20
2019-04-27T10:09:39.523Z,99.40
2019-04-27T10:12:16.454Z,99.60
2019-04-27T10:14:51.636Z,99.50
2019-04-27T10:17:31.884Z,99.60
2019-04-27T10:20:11.164Z,99.60
2019-04-27T10:22:46.782Z,99.70
2019-04-27T10:25:26.261Z,99.70
2019-04-27T10:28:03.273Z,99.70
2019-04-27T10:30:38.821Z,99.90
2019-04-27T10:33:15.977Z,99.90
2019-04-27T10:35:50.996Z,99.90
2019-04-27T10:38:26.387Z,99.90
2019-04-27T10:41:01.339Z,99.90
2019-04-27T10:43:37.166Z,99.90
2019-04-27T10:46:11.943Z,99.90
2019-04-27T10:48:47.000Z,99.90
2019-04-27T10:51:22.357Z,99.90
2019-04-27T10:53:58.304Z,99.90
2019-04-27T10:56:33.343Z,99.90
2019-04-27T10:59:09.743Z,99.90
2019-04-27T11:01:45.969Z,99.90
2019-04-27T11:04:32.077Z,99.90
2019-04-27T11:07:08.374Z,99.90
2019-04-27T11:09:44.006Z,99.90
2019-04-27T11:12:19.176Z,99.90
2019-04-27T11:14:56.612Z,99.90
2019-04-27T11:17:32.898Z,99.90
2019-04-27T11:20:09.930Z,99.90
2019-04-27T11:22:46.425Z,99.90
2019-04-27T11:25:21.655Z,99.90
2019-04-27T11:27:57.863Z,99.90
2019-04-27T11:30:37.800Z,99.90
2019-04-27T11:33:12.827Z,99.90
2019-04-27T11:35:55.163Z,99.90
2019-04-27T11:38:31.143Z,99.90
2019-04-27T11:41:07.568Z,99.90
2019-04-27T11:43:42.780Z,99.90
2019-04-27T11:46:18.387Z,99.90
2019-04-27T11:48:53.732Z,99.90
2019-04-27T11:51:29.049Z,99.90
2019-04-27T11:54:04.243Z,99.90
2019-04-27T11:56:39.719Z,99.90
2019-04-27T11:59:15.904Z,99.90
2019-04-27T12:01:55.813Z,99.90
2019-04-27T12:04:30.301Z,99.90
2019-04-27T12:07:08.209Z,99.90
2019-04-27T12:09:41.954Z,99.90
2019-04-27T12:12:21.798Z,99.90
2019-04-27T12:14:56.086Z,99.90
2019-04-27T12:17:31.810Z,99.90
2019-04-27T12:20:07.595Z,99.90
2019-04-27T12:22:42.938Z,99.90
2019-04-27T12:25:18.359Z,99.90
2019-04-27T12:28:12.075Z,99.90
2019-04-27T12:30:48.411Z,99.90
2019-04-27T12:33:30.538Z,99.90
2019-04-27T12:36:06.733Z,99.90
2019-04-27T12:38:42.282Z,99.90
2019-04-27T12:41:17.554Z,99.90
2019-04-27T12:43:55.914Z,99.90
2019-04-27T12:46:31.781Z,99.90
2019-04-27T12:49:07.683Z,99.90
2019-04-27T12:51:42.748Z,99.90
2019-04-27T12:54:19.698Z,99.90
2019-04-27T12:57:15.946Z,99.90
2019-04-27T12:59:58.847Z,99.90
2019-04-27T13:02:52.338Z,99.90
2019-04-27T13:05:28.221Z,99.90
2019-04-27T13:08:03.239Z,99.90
2019-04-27T13:10:38.126Z,99.90
2019-04-27T13:13:13.106Z,99.90
2019-04-27T13:15:49.412Z,99.90
2019-04-27T13:18:25.742Z,99.90
2019-04-27T13:21:00.911Z,99.90
2019-04-27T13:23:37.138Z,99.90
2019-04-27T13:26:12.397Z,99.90
2019-04-27T13:28:47.200Z,99.90
2019-04-27T13:31:22.617Z,99.90
2019-04-27T13:33:57.631Z,99.90
2019-04-27T13:36:33.137Z,99.90
2019-04-27T13:39:08.897Z,99.90
2019-04-27T13:41:46.263Z,99.90
2019-04-27T13:44:21.502Z,99.90
2019-04-27T13:47:17.043Z,99.90
2019-04-27T13:50:06.490Z,99.90
2019-04-27T13:52:41.948Z,99.90
2019-04-27T13:55:16.798Z,99.90
2019-04-27T13:57:52.152Z,99.90
2019-04-27T14:00:27.110Z,99.90
2019-04-27T14:03:04.384Z,99.90
2019-04-27T14:05:39.060Z,99.90
2019-04-27T14:08:14.292Z,99.90
2019-04-27T14:10:51.302Z,99.90
2019-04-27T14:13:25.973Z,99.90
2019-04-27T14:16:00.816Z,99.90
2019-04-27T14:18:37.923Z,99.90
2019-04-27T14:21:12.572Z,99.90
2019-04-27T14:24:07.122Z,99.90
2019-04-27T14:26:42.218Z,99.90
2019-04-27T14:29:18.848Z,99.90
2019-04-27T14:31:53.440Z,99.90
2019-04-27T14:34:29.512Z,99.90
2019-04-27T14:37:05.425Z,99.90
2019-04-27T14:39:41.443Z,99.90
2019-04-27T14:42:16.542Z,99.90
2019-04-27T14:44:51.773Z,99.90
2019-04-27T14:47:26.675Z,99.90
2019-04-27T14:50:02.075Z,99.90
2019-04-27T14:52:36.928Z,99.90
2019-04-27T14:55:12.203Z,99.90
2019-04-27T14:57:47.247Z,99.90
2019-04-27T15:00:24.511Z,99.90
2019-04-27T15:02:59.524Z,99.90
2019-04-27T15:05:35.187Z,99.90
2019-04-27T15:08:10.349Z,99.90
2019-04-27T15:10:46.407Z,99.90
2019-04-27T15:13:21.499Z,99.90
2019-04-27T15:15:57.309Z,99.90
2019-04-27T15:18:34.614Z,99.90
2019-04-27T15:21:10.452Z,99.90
2019-04-27T15:23:48.200Z,99.90
2019-04-27T15:26:22.923Z,99.90
2019-04-27T15:28:59.423Z,99.90
2019-04-27T15:31:36.398Z,99.90
2019-04-27T15:34:12.770Z,99.90
2019-04-27T15:36:56.802Z,99.90
2019-04-27T15:39:50.607Z,99.90
2019-04-27T15:42:29.986Z,99.90
2019-04-27T15:45:05.082Z,99.90
2019-04-27T15:47:42.433Z,99.90
2019-04-27T15:50:18.247Z,99.90
2019-04-27T15:52:54.273Z,99.90
2019-04-27T15:55:34.545Z,99.90
2019-04-27T15:58:05.229Z,99.90
2019-04-27T16:00:40.073Z,99.90
2019-04-27T16:03:15.418Z,99.90
2019-04-27T16:05:50.488Z,99.90
2019-04-27T16:08:25.601Z,99.90
2019-04-27T16:11:00.856Z,99.90
2019-04-27T16:13:36.163Z,99.90
2019-04-27T16:16:11.737Z,99.90
2019-04-27T16:18:48.994Z,99.90
2019-04-27T16:21:24.410Z,99.90
2019-04-27T16:23:59.907Z,99.90
2019-04-27T16:26:54.639Z,99.90
2019-04-27T16:29:29.840Z,99.90
2019-04-27T16:32:02.826Z,99.90
2019-04-27T16:34:59.134Z,99.90
2019-04-27T16:37:52.108Z,99.90
2019-04-27T16:40:30.139Z,99.90
2019-04-27T16:43:05.185Z,99.90
2019-04-27T16:45:40.911Z,99.90
2019-04-27T16:48:18.432Z,99.90
2019-04-27T16:50:55.224Z,99.90
2019-04-27T16:53:30.141Z,99.90
2019-04-27T16:56:14.830Z,99.90
2019-04-27T16:58:56.256Z,99.90
2019-04-27T17:01:30.467Z,99.90
2019-04-27T17:04:06.354Z,99.90
2019-04-27T17:06:46.181Z,99.90
2019-04-27T17:09:18.889Z,99.90
2019-04-27T17:11:55.091Z,99.90
2019-04-27T17:14:35.063Z,99.90
2019-04-27T17:17:11.879Z,99.90
2019-04-27T17:19:46.051Z,99.90
2019-04-27T17:22:22.661Z,99.90
2019-04-27T17:24:58.632Z,99.90
2019-04-27T17:27:35.909Z,99.90
2019-04-27T17:30:12.543Z,99.90
2019-04-27T17:32:54.586Z,99.90
2019-04-27T17:35:29.522Z,99.90
2019-04-27T17:38:10.487Z,99.90
2019-04-27T17:40:40.892Z,99.90
2019-04-27T17:43:16.047Z,99.90
2019-04-27T17:45:51.016Z,99.90
2019-04-27T17:48:26.568Z,99.90
2019-04-27T17:51:03.533Z,99.90
2019-04-27T17:53:38.346Z,99.90
2019-04-27T17:56:13.125Z,99.90
2019-04-27T17:58:48.968Z,99.90
2019-04-27T18:01:29.270Z,99.90
2019-04-27T18:04:02.926Z,99.90
2019-04-27T18:06:36.116Z,99.90
2019-04-27T18:09:13.079Z,99.90
2019-04-27T18:11:50.202Z,99.90
2019-04-27T18:14:24.642Z,99.90
2019-04-27T18:16:59.525Z,99.90
2019-04-27T18:19:44.270Z,99.90
2019-04-27T18:22:19.785Z,99.90
2019-04-27T18:24:59.925Z,99.90
2019-04-27T18:27:37.664Z,99.90
2019-04-27T18:30:33.761Z,99.90
2019-04-27T18:33:07.882Z,99.90
2019-04-27T18:35:43.797Z,99.90
2019-04-27T18:38:19.110Z,99.90
2019-04-27T18:40:54.842Z,99.90
2019-04-27T18:43:29.795Z,99.90
2019-04-27T18:46:05.149Z,99.90
2019-04-27T18:48:44.833Z,99.90
2019-04-27T18:51:28.813Z,99.90
2019-04-27T18:54:03.893Z,99.90
2019-04-27T18:56:41.551Z,99.90
2019-04-27T18:59:15.923Z,99.90
2019-04-27T19:01:51.760Z,99.90
2019-04-27T19:04:28.074Z,99.90
2019-04-27T19:07:15.732Z,99.90
2019-04-27T19:09:50.809Z,99.90
2019-04-27T19:12:26.368Z,99.90
2019-04-27T19:15:01.403Z,99.90
2019-04-27T19:17:38.694Z,99.90
2019-04-27T19:20:13.813Z,99.90
2019-04-27T19:22:49.258Z,99.90
2019-04-27T19:25:33.094Z,99.90
2019-04-27T19:28:11.077Z,99.90
2019-04-27T19:30:53.448Z,99.90
2019-04-27T19:33:30.772Z,99.90
2019-04-27T19:36:05.441Z,99.90
2019-04-27T19:38:40.793Z,99.90
2019-04-27T19:41:15.768Z,99.90
2019-04-27T19:43:50.697Z,99.90
2019-04-27T19:46:25.736Z,99.90
2019-04-27T19:49:01.036Z,99.90
2019-04-27T19:51:35.918Z,99.90
2019-04-27T19:54:11.448Z,99.90
2019-04-27T19:56:47.032Z,99.90
2019-04-27T19:59:24.116Z,99.90
2019-04-27T20:02:00.566Z,99.90
2019-04-27T20:04:38.183Z,99.90
2019-04-27T20:07:13.226Z,99.90
2019-04-27T20:09:54.063Z,99.90
2019-04-27T20:12:31.144Z,99.90
2019-04-27T20:15:06.388Z,99.90
2019-04-27T20:17:41.572Z,99.90
2019-04-27T20:20:17.265Z,99.90
2019-04-27T20:22:52.350Z,99.90
2019-04-27T20:25:27.448Z,99.90
2019-04-27T20:28:02.374Z,99.90
2019-04-27T20:30:37.645Z,99.90
2019-04-27T20:33:13.000Z,99.90
2019-04-27T20:35:48.673Z,99.90
2019-04-27T20:38:23.805Z,99.90
2019-04-27T20:40:59.154Z,99.90
2019-04-27T20:43:34.012Z,99.90
2019-04-27T20:46:11.723Z,99.90
2019-04-27T20:48:46.464Z,99.90
2019-04-27T20:51:23.467Z,99.90
2019-04-27T20:54:01.661Z,99.90
2019-04-27T20:56:36.815Z,99.90
2019-04-27T20:59:12.152Z,99.90
2019-04-27T21:01:48.225Z,99.90
2019-04-27T21:04:25.100Z,99.90
2019-04-27T21:07:02.591Z,99.90
2019-04-27T21:09:37.798Z,99.90
2019-04-27T21:12:13.069Z,99.60
2019-04-27T21:14:48.459Z,99.70
2019-04-27T21:17:24.408Z,99.00
2019-04-27T21:19:59.829Z,99.10
2019-04-27T21:22:35.944Z,99.00
2019-04-27T21:25:11.904Z,98.30
2019-04-27T21:27:47.517Z,96.80
2019-04-27T21:30:23.266Z,96.20
2019-04-27T21:33:00.712Z,95.90
2019-04-27T21:35:35.570Z,95.30
2019-04-27T21:38:11.753Z,95.20
2019-04-27T21:40:49.258Z,94.80
2019-04-27T21:43:23.664Z,94.70
2019-04-27T21:45:58.658Z,94.90
2019-04-27T21:48:34.282Z,94.90
2019-04-27T21:51:11.306Z,95.50
2019-04-27T21:53:56.520Z,93.90
2019-04-27T21:56:31.641Z,93.60
2019-04-27T21:59:06.939Z,92.60
2019-04-27T22:01:43.228Z,92.20
2019-04-27T22:04:22.870Z,92.70
2019-04-27T22:06:58.908Z,91.80
2019-04-27T22:09:35.607Z,91.20
2019-04-27T22:12:11.225Z,91.30
2019-04-27T22:14:50.949Z,90.90
2019-04-27T22:17:26.204Z,90.50
2019-04-27T22:20:01.770Z,90.20
2019-04-27T22:22:51.721Z,90.20
2019-04-27T22:25:28.759Z,89.20
2019-04-27T22:28:03.849Z,88.80
2019-04-27T22:30:39.094Z,88.20
2019-04-27T22:33:14.280Z,86.80
2019-04-27T22:35:51.637Z,86.90
2019-04-27T22:38:27.211Z,86.20
2019-04-27T22:41:16.064Z,87.40
2019-04-27T22:44:01.873Z,85.30
2019-04-27T22:46:42.339Z,83.60
2019-04-27T22:49:17.469Z,83.30
2019-04-27T22:51:53.289Z,81.70
2019-04-27T22:54:32.149Z,81.80
2019-04-27T22:57:11.232Z,82.30
2019-04-27T22:59:49.899Z,82.40
2019-04-27T23:02:33.436Z,80.80
2019-04-27T23:05:08.693Z,79.20
2019-04-27T23:07:44.216Z,79.30
2019-04-27T23:10:21.282Z,78.40
2019-04-27T23:12:58.074Z,78.70
2019-04-27T23:15:34.561Z,82.10
2019-04-27T23:18:10.476Z,78.40
2019-04-27T23:20:46.419Z,78.80
2019-04-27T23:23:21.859Z,78.80
2019-04-27T23:25:57.229Z,77.30
2019-04-27T23:28:32.864Z,79.00
2019-04-27T23:31:11.772Z,79.70
2019-04-27T23:33:48.604Z,77.70
2019-04-27T23:36:23.891Z,80.10
2019-04-27T23:39:02.372Z,77.80
2019-04-27T23:41:39.740Z,75.90
2019-04-27T23:44:19.359Z,73.90
2019-04-27T23:46:54.030Z,74.80
2019-04-27T23:49:38.737Z,72.60
2019-04-27T23:52:18.129Z,72.80
2019-04-27T23:54:53.511Z,73.00
2019-04-27T23:57:31.244Z,72.10
